createdAt,value
2023-05-25T00:01:34.347Z,100634.67
2023-05-25T00:04:05.406Z,100637.20
2023-05-25T00:06:33.270Z,100640.83
2023-05-25T00:09:01.385Z,100639.69
2023-05-25T00:11:29.214Z,100635.17
2023-05-25T00:13:56.959Z,100635.06
2023-05-25T00:16:25.030Z,100638.05
2023-05-25T00:18:53.399Z,100636.12
2023-05-25T00:21:21.152Z,100641.14
2023-05-25T00:23:48.981Z,100642.53
2023-05-25T00:26:16.749Z,100640.26
2023-05-25T00:28:44.712Z,100642.77
2023-05-25T00:31:12.589Z,100645.71
2023-05-25T00:33:40.905Z,100647.79
2023-05-25T00:36:09.072Z,100647.00
2023-05-25T00:38:36.953Z,100650.78
2023-05-25T00:42:08.910Z,100649.48
2023-05-25T00:44:36.813Z,100647.52
2023-05-25T00:47:05.042Z,100648.21
2023-05-25T00:49:35.370Z,100648.81
2023-05-25T00:52:04.273Z,100647.08
2023-05-25T00:54:33.654Z,100647.88
2023-05-25T00:57:04.359Z,100644.73
2023-05-25T00:59:40.824Z,100647.71
2023-05-25T01:02:16.466Z,100652.73
2023-05-25T01:04:53.582Z,100653.21
2023-05-25T01:07:33.357Z,100655.00
2023-05-25T01:10:04.891Z,100658.66
2023-05-25T01:12:37.682Z,100654.74
2023-05-25T01:15:06.441Z,100655.33
2023-05-25T01:17:38.129Z,100650.67
2023-05-25T01:20:11.802Z,100652.04
2023-05-25T01:22:45.962Z,100656.44
2023-05-25T01:25:22.419Z,100659.48
2023-05-25T01:28:21.893Z,100658.77
2023-05-25T01:30:51.114Z,100659.67
2023-05-25T01:33:20.119Z,100662.99
2023-05-25T01:35:48.950Z,100661.42
2023-05-25T01:38:18.364Z,100657.55
2023-05-25T01:40:46.162Z,100659.27
2023-05-25T01:43:14.269Z,100658.48
2023-05-25T01:45:42.301Z,100661.15
2023-05-25T01:48:27.858Z,100661.23
2023-05-25T01:51:02.388Z,100661.30
2023-05-25T01:53:36.005Z,100660.90
2023-05-25T01:56:09.275Z,100658.38
2023-05-25T01:58:45.737Z,100657.23
2023-05-25T02:01:16.049Z,100656.85
2023-05-25T02:04:35.477Z,100657.73
2023-05-25T02:07:05.009Z,100658.11
2023-05-25T02:09:32.847Z,100661.88
2023-05-25T02:12:01.102Z,100655.64
2023-05-25T02:14:28.892Z,100655.04
2023-05-25T02:16:57.853Z,100652.70
2023-05-25T02:19:25.598Z,100656.22
2023-05-25T02:21:53.366Z,100654.27
2023-05-25T02:24:24.747Z,100657.13
2023-05-25T02:26:52.676Z,100656.49
2023-05-25T02:29:20.592Z,100662.18
2023-05-25T02:31:48.479Z,100664.05
2023-05-25T02:34:16.353Z,100664.10
2023-05-25T02:36:45.151Z,100661.02
2023-05-25T02:39:13.177Z,100664.93
2023-05-25T02:41:41.016Z,100666.48
2023-05-25T02:44:08.790Z,100668.66
2023-05-25T02:46:36.727Z,100670.30
2023-05-25T02:49:05.670Z,100675.77
2023-05-25T02:51:33.700Z,100675.12
2023-05-25T02:54:01.452Z,100676.60
2023-05-25T02:56:29.267Z,100673.90
2023-05-25T02:58:57.071Z,100674.39
2023-05-25T03:01:25.464Z,100672.35
2023-05-25T03:03:53.513Z,100671.73
2023-05-25T03:06:23.120Z,100671.79
2023-05-25T03:08:51.001Z,100673.34
2023-05-25T03:11:18.767Z,100675.48
2023-05-25T03:13:46.556Z,100676.06
2023-05-25T03:16:14.529Z,100681.44
2023-05-25T03:18:43.394Z,100685.27
2023-05-25T03:21:11.599Z,100687.71
2023-05-25T03:23:39.532Z,100689.85
2023-05-25T03:26:07.637Z,100693.70
2023-05-25T03:28:35.625Z,100696.06
2023-05-25T03:31:04.624Z,100700.84
2023-05-25T03:33:33.358Z,100708.70
2023-05-25T03:36:01.525Z,100713.17
2023-05-25T03:38:29.267Z,100712.30
2023-05-25T03:40:57.142Z,100718.46
2023-05-25T03:43:24.839Z,100723.98
2023-05-25T03:45:52.670Z,100721.35
2023-05-25T03:48:20.591Z,100723.48
2023-05-25T03:50:48.686Z,100717.55
2023-05-25T03:53:16.450Z,100712.89
2023-05-25T03:55:44.422Z,100711.05
2023-05-25T03:58:13.196Z,100711.68
2023-05-25T04:00:42.282Z,100710.17
2023-05-25T04:05:17.159Z,100716.73
2023-05-25T04:07:46.085Z,100720.69
2023-05-25T04:10:14.088Z,100719.76
2023-05-25T04:12:41.955Z,100727.21
2023-05-25T04:15:10.106Z,100725.45
2023-05-25T04:17:40.046Z,100723.48
2023-05-25T04:20:11.384Z,100721.83
2023-05-25T04:26:58.664Z,100725.88
2023-05-25T04:29:27.101Z,100723.41
2023-05-25T04:31:55.120Z,100727.72
2023-05-25T04:34:23.408Z,100727.09
2023-05-25T04:36:51.231Z,100726.91
2023-05-25T04:39:21.411Z,100729.09
2023-05-25T04:57:53.437Z,100738.25
2023-05-25T05:00:22.032Z,100742.20
2023-05-25T05:02:50.172Z,100743.78
2023-05-25T05:05:18.176Z,100751.70
2023-05-25T05:07:46.087Z,100752.96
2023-05-25T05:10:15.137Z,100752.55
2023-05-25T05:12:42.955Z,100751.61
2023-05-25T05:15:11.140Z,100752.32
2023-05-25T05:17:39.505Z,100748.35
2023-05-25T05:20:08.368Z,100753.63
2023-05-25T05:22:37.898Z,100757.02
2023-05-25T05:25:07.393Z,100756.11
2023-05-25T05:27:35.434Z,100757.60
2023-05-25T05:30:04.152Z,100759.09
2023-05-25T05:32:32.087Z,100764.09
2023-05-25T05:35:03.074Z,100761.05
2023-05-25T05:37:30.996Z,100759.45
2023-05-25T05:39:59.109Z,100764.51
2023-05-25T05:42:27.033Z,100766.12
2023-05-25T05:44:57.584Z,100770.21
2023-05-25T05:47:25.689Z,100771.19
2023-05-25T05:49:53.622Z,100776.14
2023-05-25T05:52:22.519Z,100775.45
2023-05-25T05:54:50.406Z,100778.30
2023-05-25T05:57:18.226Z,100777.84
2023-05-25T05:59:46.196Z,100780.26
2023-05-25T06:02:14.072Z,100785.14
2023-05-25T06:04:41.998Z,100787.77
2023-05-25T06:07:10.070Z,100788.14
2023-05-25T06:09:37.871Z,100793.45
2023-05-25T06:12:06.691Z,100797.02
2023-05-25T06:14:34.732Z,100803.08
2023-05-25T06:17:02.801Z,100801.52
2023-05-25T06:19:31.011Z,100807.86
2023-05-25T06:21:58.915Z,100815.02
2023-05-25T06:24:26.785Z,100817.63
2023-05-25T06:26:54.594Z,100820.56
2023-05-25T06:29:22.432Z,100826.06
2023-05-25T06:31:51.155Z,100822.52
2023-05-25T06:34:18.984Z,100821.09
2023-05-25T06:36:47.720Z,100822.87
2023-05-25T06:39:15.572Z,100821.27
2023-05-25T06:41:43.482Z,100828.70
2023-05-25T06:44:11.353Z,100825.74
2023-05-25T06:46:40.021Z,100823.09
2023-05-25T06:49:08.464Z,100820.17
2023-05-25T06:51:37.247Z,100824.00
2023-05-25T06:54:07.192Z,100824.71
2023-05-25T06:56:35.126Z,100828.34
2023-05-25T06:59:09.804Z,100833.39
2023-05-25T07:01:39.584Z,100829.42
2023-05-25T07:04:07.404Z,100829.65
2023-05-25T07:06:35.398Z,100829.50
2023-05-25T07:09:03.311Z,100831.89
2023-05-25T07:11:31.193Z,100829.80
2023-05-25T07:13:59.077Z,100830.23
2023-05-25T07:16:27.011Z,100827.02
2023-05-25T07:18:55.067Z,100828.20
2023-05-25T07:21:22.916Z,100826.33
2023-05-25T07:23:50.779Z,100828.10
2023-05-25T07:26:21.394Z,100821.95
2023-05-25T07:28:49.290Z,100823.13
2023-05-25T07:31:54.540Z,100822.81
2023-05-25T07:34:22.646Z,100825.74
2023-05-25T07:36:50.616Z,100825.90
2023-05-25T07:39:19.834Z,100824.87
2023-05-25T07:41:47.801Z,100824.58
2023-05-25T07:45:42.047Z,100826.66
2023-05-25T07:49:21.343Z,100826.18
2023-05-25T08:03:44.360Z,100818.08
2023-05-25T08:06:15.736Z,100816.73
2023-05-25T08:08:45.028Z,100815.86
2023-05-25T08:11:13.333Z,100822.73
2023-05-25T08:13:41.245Z,100826.30
2023-05-25T08:16:42.943Z,100827.60
2023-05-25T08:20:08.977Z,100830.05
2023-05-25T08:23:48.086Z,100832.04
2023-05-25T08:26:34.357Z,100825.88
2023-05-25T08:29:04.768Z,100830.05
2023-05-25T08:31:33.469Z,100834.21
2023-05-25T08:34:01.721Z,100835.23
2023-05-25T08:36:29.738Z,100837.46
2023-05-25T08:39:00.517Z,100836.81
2023-05-25T08:41:29.863Z,100842.15
2023-05-25T08:43:58.226Z,100839.54
2023-05-25T08:46:33.608Z,100836.02
2023-05-25T08:50:19.356Z,100841.63
2023-05-25T08:52:52.001Z,100837.93
2023-05-25T08:55:25.776Z,100842.14
2023-05-25T08:58:00.149Z,100841.56
2023-05-25T09:00:45.190Z,100841.05
2023-05-25T09:04:31.053Z,100839.77
2023-05-25T09:08:11.221Z,100839.00
2023-05-25T09:11:49.217Z,100843.16
2023-05-25T09:15:32.694Z,100847.50
2023-05-25T09:19:04.610Z,100847.13
2023-05-25T09:22:44.888Z,100846.89
2023-05-25T09:26:47.682Z,100846.19
2023-05-25T09:30:04.156Z,100850.27
2023-05-25T09:32:33.835Z,100850.64
2023-05-25T09:35:13.329Z,100850.20
2023-05-25T09:37:43.068Z,100855.14
2023-05-25T09:40:11.593Z,100854.52
2023-05-25T09:42:39.705Z,100853.36
2023-05-25T09:45:13.188Z,100855.76
2023-05-25T09:47:41.268Z,100850.56
2023-05-25T09:50:09.966Z,100854.01
2023-05-25T09:52:38.755Z,100856.34
2023-05-25T09:55:10.504Z,100856.84
2023-05-25T09:57:39.311Z,100856.66
2023-05-25T10:00:08.809Z,100858.61
2023-05-25T10:02:37.068Z,100860.92
2023-05-25T10:06:47.136Z,100861.38
2023-05-25T10:09:16.913Z,100861.64
2023-05-25T10:11:45.233Z,100865.22
2023-05-25T10:14:17.471Z,100866.10
2023-05-25T10:16:52.201Z,100865.66
2023-05-25T10:19:28.699Z,100865.16
2023-05-25T10:24:27.577Z,100863.63
2023-05-25T10:27:05.448Z,100865.85
2023-05-25T10:29:44.733Z,100863.17
2023-05-25T10:32:13.774Z,100860.37
2023-05-25T10:34:42.313Z,100864.16
2023-05-25T10:37:11.452Z,100865.63
2023-05-25T10:39:43.719Z,100860.05
2023-05-25T10:42:13.293Z,100864.88
2023-05-25T10:44:42.591Z,100861.63
2023-05-25T10:48:16.410Z,100848.36
2023-05-25T10:51:59.734Z,100848.65
2023-05-25T10:55:58.036Z,100854.37
2023-05-25T10:59:32.151Z,100850.88
2023-05-25T11:02:59.082Z,100852.40
2023-05-25T11:06:44.525Z,100852.10
2023-05-25T11:09:32.339Z,100850.88
2023-05-25T11:12:01.940Z,100849.61
2023-05-25T11:14:31.727Z,100851.92
2023-05-25T11:17:14.927Z,100850.54
2023-05-25T11:19:43.652Z,100850.00
2023-05-25T11:22:15.014Z,100846.60
2023-05-25T11:24:45.286Z,100847.85
2023-05-25T11:27:13.741Z,100841.50
2023-05-25T11:29:43.140Z,100844.86
2023-05-25T11:32:14.782Z,100845.73
2023-05-25T11:34:46.918Z,100846.63
2023-05-25T11:37:22.792Z,100848.94
2023-05-25T11:39:52.439Z,100846.83
2023-05-25T11:43:12.761Z,100841.08
2023-05-25T11:45:44.878Z,100844.88
2023-05-25T11:48:16.458Z,100846.05
2023-05-25T11:50:44.837Z,100847.63
2023-05-25T11:53:13.887Z,100846.60
2023-05-25T11:55:57.718Z,100844.70
2023-05-25T11:58:35.288Z,100850.64
2023-05-25T12:01:14.053Z,100843.98
2023-05-25T12:03:43.610Z,100844.23
2023-05-25T12:06:25.647Z,100846.74
2023-05-25T12:09:10.277Z,100846.88
2023-05-25T12:11:38.928Z,100843.17
2023-05-25T12:14:07.880Z,100849.95
2023-05-25T12:16:39.086Z,100850.17
2023-05-25T12:19:13.836Z,100846.70
2023-05-25T12:21:42.308Z,100845.54
2023-05-25T12:24:15.221Z,100846.98
2023-05-25T12:26:51.683Z,100843.12
2023-05-25T12:29:19.656Z,100837.54
2023-05-25T12:31:47.582Z,100839.02
2023-05-25T12:34:17.321Z,100842.70
2023-05-25T12:36:50.733Z,100842.60
2023-05-25T12:39:35.430Z,100837.64
2023-05-25T12:42:13.301Z,100834.70
2023-05-25T12:44:44.026Z,100833.31
2023-05-25T12:47:32.457Z,100831.92
2023-05-25T12:50:13.567Z,100824.20
2023-05-25T12:53:01.848Z,100822.95
2023-05-25T12:55:31.738Z,100816.78
2023-05-25T12:58:05.566Z,100806.98
2023-05-25T13:00:43.965Z,100802.73
2023-05-25T13:03:11.999Z,100802.88
2023-05-25T13:06:42.765Z,100799.14
2023-05-25T13:29:01.368Z,100769.42
2023-05-25T13:35:48.523Z,100753.70
2023-05-25T13:39:16.578Z,100757.69
2023-05-25T13:47:21.235Z,100752.40
2023-05-25T13:49:49.698Z,100746.61
2023-05-25T13:52:18.380Z,100743.52
2023-05-25T13:55:22.128Z,100736.91
2023-05-25T13:57:52.646Z,100737.19
2023-05-25T14:01:05.827Z,100739.15
2023-05-25T14:03:34.577Z,100736.10
2023-05-25T14:06:05.138Z,100729.96
2023-05-25T14:08:35.296Z,100729.77
2023-05-25T14:11:05.303Z,100725.48
2023-05-25T14:13:37.141Z,100721.87
2023-05-25T14:16:05.501Z,100719.55
2023-05-25T14:18:33.945Z,100721.36
2023-05-25T14:21:02.149Z,100723.84
2023-05-25T14:23:37.806Z,100720.19
2023-05-25T14:26:07.123Z,100718.29
2023-05-25T14:28:35.165Z,100714.15
2023-05-25T14:31:03.306Z,100713.23
2023-05-25T14:33:34.241Z,100713.94
2023-05-25T14:36:02.211Z,100718.84
2023-05-25T14:38:32.732Z,100714.23
2023-05-25T14:41:01.114Z,100714.55
2023-05-25T14:43:31.276Z,100716.51
2023-05-25T14:46:03.256Z,100720.59
2023-05-25T14:48:31.321Z,100724.13
2023-05-25T14:51:02.968Z,100728.67
2023-05-25T14:53:45.627Z,100721.77
2023-05-25T14:56:14.608Z,100719.40
2023-05-25T14:58:43.482Z,100718.05
2023-05-25T15:01:13.747Z,100718.98
2023-05-25T15:03:45.095Z,100720.98
2023-05-25T15:06:15.651Z,100718.14
2023-05-25T15:08:43.811Z,100721.98
2023-05-25T15:11:14.082Z,100724.19
2023-05-25T15:13:42.044Z,100727.14
2023-05-25T15:16:17.156Z,100724.98
2023-05-25T15:18:45.402Z,100727.02
2023-05-25T15:21:13.308Z,100729.52
2023-05-25T15:23:41.940Z,100730.54
2023-05-25T15:26:11.726Z,100731.22
2023-05-25T15:28:39.561Z,100732.23
2023-05-25T15:31:07.512Z,100729.55
2023-05-25T15:33:50.215Z,100732.95
2023-05-25T15:36:22.220Z,100724.58
2023-05-25T15:38:50.119Z,100721.39
2023-05-25T15:41:18.874Z,100720.79
2023-05-25T15:43:52.677Z,100722.17
2023-05-25T15:46:21.745Z,100723.19
2023-05-25T15:48:49.738Z,100719.83
2023-05-25T15:51:17.590Z,100716.27
2023-05-25T15:53:47.248Z,100716.37
2023-05-25T15:56:15.099Z,100709.83
2023-05-25T15:58:47.175Z,100704.30
2023-05-25T16:01:15.366Z,100702.46
2023-05-25T16:03:44.933Z,100701.29
2023-05-25T16:06:12.987Z,100698.56
2023-05-25T16:08:40.916Z,100696.99
2023-05-25T16:11:09.095Z,100694.89
2023-05-25T16:13:37.173Z,100694.32
2023-05-25T16:16:05.755Z,100694.32
2023-05-25T16:18:34.879Z,100690.91
2023-05-25T16:21:15.633Z,100690.51
2023-05-25T16:24:03.037Z,100689.27
2023-05-25T16:26:58.905Z,100690.98
2023-05-25T16:29:27.664Z,100689.02
2023-05-25T16:31:56.850Z,100688.23
2023-05-25T16:34:26.025Z,100692.03
2023-05-25T16:36:54.046Z,100690.88
2023-05-25T16:39:22.026Z,100689.86
2023-05-25T16:41:51.043Z,100686.67
2023-05-25T16:44:19.113Z,100687.89
2023-05-25T16:46:47.513Z,100685.48
2023-05-25T16:49:16.480Z,100682.18
2023-05-25T16:51:44.764Z,100681.02
2023-05-25T16:54:12.673Z,100679.25
2023-05-25T16:56:40.972Z,100677.07
2023-05-25T16:59:08.742Z,100674.48
2023-05-25T17:01:36.893Z,100675.54
2023-05-25T17:04:05.419Z,100676.40
2023-05-25T17:06:34.067Z,100674.44
2023-05-25T17:09:02.341Z,100676.00
2023-05-25T17:11:30.194Z,100677.86
2023-05-25T17:13:58.088Z,100678.59
2023-05-25T17:16:26.029Z,100681.34
2023-05-25T17:18:54.347Z,100679.72
2023-05-25T17:21:22.696Z,100678.00
2023-05-25T17:23:51.470Z,100675.25
2023-05-25T17:26:19.715Z,100679.53
2023-05-25T17:28:47.786Z,100683.52
2023-05-25T17:31:20.968Z,100684.89
2023-05-25T17:33:49.262Z,100686.40
2023-05-25T17:36:17.636Z,100686.86
2023-05-25T17:38:45.678Z,100685.95
2023-05-25T17:41:13.993Z,100682.39
2023-05-25T17:43:42.077Z,100681.98
2023-05-25T17:46:10.295Z,100682.72
2023-05-25T17:48:39.275Z,100683.16
2023-05-25T17:51:07.949Z,100683.27
2023-05-25T17:53:38.904Z,100684.00
2023-05-25T17:56:07.265Z,100682.44
2023-05-25T17:58:36.258Z,100685.14
2023-05-25T18:01:04.782Z,100685.82
2023-05-25T18:03:33.074Z,100689.70
2023-05-25T18:06:01.308Z,100690.44
2023-05-25T18:08:29.379Z,100691.17
2023-05-25T18:10:57.571Z,100689.40
2023-05-25T18:13:25.991Z,100689.28
2023-05-25T18:15:54.815Z,100689.99
2023-05-25T18:18:24.940Z,100689.45
2023-05-25T18:20:53.124Z,100689.85
2023-05-25T18:23:22.361Z,100692.29
2023-05-25T18:25:50.543Z,100695.10
2023-05-25T18:28:18.848Z,100697.16
2023-05-25T18:30:50.603Z,100700.11
2023-05-25T18:33:19.680Z,100700.94
2023-05-25T18:35:47.791Z,100701.65
2023-05-25T18:38:16.328Z,100704.44
2023-05-25T18:40:45.040Z,100708.11
2023-05-25T18:43:12.865Z,100713.77
2023-05-25T18:45:42.103Z,100712.36
2023-05-25T18:48:10.568Z,100716.02
2023-05-25T18:50:41.889Z,100718.23
2023-05-25T18:53:10.923Z,100717.37
2023-05-25T18:55:39.344Z,100721.92
2023-05-25T18:58:08.875Z,100727.09
2023-05-25T19:00:38.806Z,100726.41
2023-05-25T19:03:06.935Z,100725.05
2023-05-25T19:05:35.810Z,100726.29
2023-05-25T19:08:05.145Z,100727.67
2023-05-25T19:10:35.476Z,100727.10
2023-05-25T19:13:04.042Z,100732.50
2023-05-25T19:15:32.336Z,100738.34
2023-05-25T19:18:03.624Z,100742.66
2023-05-25T19:20:32.878Z,100742.48
2023-05-25T19:23:00.914Z,100746.23
2023-05-25T19:25:29.220Z,100744.20
2023-05-25T19:27:58.699Z,100748.95
2023-05-25T19:30:26.684Z,100747.55
2023-05-25T19:32:56.018Z,100744.03
2023-05-25T19:35:25.061Z,100744.96
2023-05-25T19:37:54.334Z,100746.65
2023-05-25T19:40:24.149Z,100746.54
2023-05-25T19:42:52.421Z,100744.77
2023-05-25T19:45:21.709Z,100744.44
2023-05-25T19:47:49.728Z,100738.71
2023-05-25T19:50:18.884Z,100739.01
2023-05-25T19:52:47.855Z,100737.33
2023-05-25T19:55:16.150Z,100736.80
2023-05-25T19:57:44.413Z,100730.41
2023-05-25T20:00:21.315Z,100730.71
2023-05-25T20:02:54.654Z,100732.27
2023-05-25T20:05:24.860Z,100732.75
2023-05-25T20:07:52.927Z,100731.27
2023-05-25T20:10:22.142Z,100734.97
2023-05-25T20:12:51.070Z,100737.61
2023-05-25T20:15:20.598Z,100736.52
2023-05-25T20:17:48.684Z,100741.20
2023-05-25T20:20:17.968Z,100740.65
2023-05-25T20:22:47.990Z,100743.34
2023-05-25T20:25:16.952Z,100746.70
2023-05-25T20:27:45.118Z,100740.23
2023-05-25T20:30:14.340Z,100738.59
2023-05-25T20:32:44.689Z,100738.27
2023-05-25T20:35:13.513Z,100738.16
2023-05-25T20:37:42.069Z,100742.32
2023-05-25T20:40:12.058Z,100741.95
2023-05-25T20:42:40.854Z,100741.38
2023-05-25T20:45:09.850Z,100741.94
2023-05-25T20:47:45.028Z,100746.86
2023-05-25T20:50:12.907Z,100745.19
2023-05-25T20:52:41.694Z,100749.45
2023-05-25T20:55:09.471Z,100751.23
2023-05-25T20:57:37.338Z,100754.06
2023-05-25T21:00:05.733Z,100754.39
2023-05-25T21:02:33.807Z,100760.03
2023-05-25T21:05:01.725Z,100764.33
2023-05-25T21:07:29.598Z,100762.52
2023-05-25T21:09:59.622Z,100765.14
2023-05-25T21:12:27.490Z,100766.33
2023-05-25T21:14:55.802Z,100767.70
2023-05-25T21:17:24.232Z,100770.30
2023-05-25T21:19:52.118Z,100767.71
2023-05-25T21:22:20.416Z,100772.77
2023-05-25T21:24:48.566Z,100769.65
2023-05-25T21:27:17.759Z,100770.23
2023-05-25T21:29:45.614Z,100770.90
2023-05-25T21:32:13.420Z,100771.23
2023-05-25T21:34:41.195Z,100772.00
2023-05-25T21:37:09.090Z,100776.73
2023-05-25T21:39:37.046Z,100778.36
2023-05-25T21:42:05.403Z,100779.44
2023-05-25T21:44:33.191Z,100784.02
2023-05-25T21:47:01.115Z,100789.31
2023-05-25T21:49:28.983Z,100787.63
2023-05-25T21:51:57.574Z,100786.51
2023-05-25T21:54:25.536Z,100783.16
2023-05-25T21:56:53.923Z,100780.19
2023-05-25T21:59:21.775Z,100780.23
2023-05-25T22:01:49.708Z,100783.40
2023-05-25T22:04:17.655Z,100779.41
2023-05-25T22:06:45.578Z,100775.81
2023-05-25T22:09:13.421Z,100779.13
2023-05-25T22:11:41.654Z,100778.56
2023-05-25T22:14:10.734Z,100782.05
2023-05-25T22:16:38.676Z,100781.83
2023-05-25T22:19:06.587Z,100779.92
2023-05-25T22:21:34.426Z,100783.47
2023-05-25T22:24:02.207Z,100781.77
2023-05-25T22:26:30.378Z,100789.94
2023-05-25T22:28:58.396Z,100792.25
2023-05-25T22:31:27.925Z,100793.52
2023-05-25T22:33:55.826Z,100797.66
2023-05-25T22:36:23.826Z,100799.84
2023-05-25T22:38:51.660Z,100800.86
2023-05-25T22:41:19.420Z,100800.42
2023-05-25T22:43:47.353Z,100802.30
2023-05-25T22:46:17.352Z,100807.42
2023-05-25T22:48:45.364Z,100803.80
2023-05-25T22:51:13.151Z,100802.54
2023-05-25T22:53:41.257Z,100808.48
2023-05-25T22:56:09.146Z,100807.17
2023-05-25T22:58:37.307Z,100814.03
2023-05-25T23:01:05.225Z,100814.93
2023-05-25T23:03:33.152Z,100816.58
2023-05-25T23:06:01.020Z,100813.41
2023-05-25T23:08:29.000Z,100811.84
2023-05-25T23:10:56.879Z,100814.70
2023-05-25T23:13:24.865Z,100813.80
2023-05-25T23:15:55.280Z,100812.96
2023-05-25T23:18:23.222Z,100812.02
2023-05-25T23:20:51.211Z,100812.19
2023-05-25T23:23:19.052Z,100812.50
2023-05-25T23:25:47.215Z,100814.16
2023-05-25T23:28:15.134Z,100815.62
2023-05-25T23:30:42.891Z,100820.83
2023-05-25T23:33:10.733Z,100819.89
2023-05-25T23:35:38.531Z,100819.92
2023-05-25T23:38:06.349Z,100825.22
2023-05-25T23:40:34.661Z,100827.90
2023-05-25T23:43:02.530Z,100826.55
2023-05-25T23:45:30.346Z,100825.00
2023-05-25T23:47:58.418Z,100828.54
2023-05-25T23:50:26.515Z,100827.13
2023-05-25T23:52:54.374Z,100833.31
2023-05-25T23:55:22.354Z,100830.75
2023-05-25T23:57:50.325Z,100827.70
